createdAt,value
2018-06-30T00:02:05.539Z,98505.91
2018-06-30T00:04:32.865Z,98513.11
2018-06-30T00:07:00.130Z,98513.78
2018-06-30T00:09:28.051Z,98518.88
2018-06-30T00:11:55.281Z,98519.82
2018-06-30T00:14:22.560Z,98516.13
2018-06-30T00:19:39.926Z,98519.05
2018-06-30T00:22:07.418Z,98519.19
2018-06-30T00:24:34.697Z,98513.32
2018-06-30T00:27:08.005Z,98510.36
2018-06-30T00:29:35.296Z,98515.37
2018-06-30T00:32:02.554Z,98514.05
2018-06-30T00:34:29.834Z,98507.87
2018-06-30T00:36:57.103Z,98508.48
2018-06-30T00:39:24.353Z,98514.65
2018-06-30T00:41:51.617Z,98523.08
2018-06-30T00:44:19.198Z,98519.39
2018-06-30T00:46:46.415Z,98524.39
2018-06-30T00:49:14.213Z,98524.77
2018-06-30T00:51:41.485Z,98527.03
2018-06-30T00:54:08.734Z,98528.19
2018-06-30T00:56:36.021Z,98535.84
2018-06-30T00:59:03.298Z,98533.39
2018-06-30T01:01:30.579Z,98538.31
2018-06-30T01:03:57.841Z,98536.88
2018-06-30T01:06:25.133Z,98540.55
2018-06-30T01:08:52.366Z,98543.12
2018-06-30T01:11:19.640Z,98551.78
2018-06-30T01:13:46.947Z,98546.91
2018-06-30T01:16:14.267Z,98552.48
2018-06-30T01:18:42.269Z,98544.71
2018-06-30T01:21:09.757Z,98552.94
2018-06-30T01:23:37.046Z,98542.86
2018-06-30T01:26:04.608Z,98548.44
2018-06-30T01:28:31.842Z,98553.85
2018-06-30T01:30:59.085Z,98558.91
2018-06-30T01:33:26.366Z,98558.98
2018-06-30T01:35:53.627Z,98564.28
2018-06-30T01:38:20.877Z,98565.94
2018-06-30T01:40:48.126Z,98563.03
2018-06-30T01:43:15.372Z,98562.57
2018-06-30T01:45:42.632Z,98562.81
2018-06-30T01:48:09.895Z,98561.56
2018-06-30T01:50:37.357Z,98563.47
2018-06-30T01:53:04.783Z,98560.38
2018-06-30T01:55:32.536Z,98567.01
2018-06-30T01:57:59.961Z,98566.55
2018-06-30T02:00:27.196Z,98564.47
2018-06-30T02:02:54.471Z,98567.27
2018-06-30T02:05:21.739Z,98564.47
2018-06-30T02:07:49.011Z,98561.56
2018-06-30T02:10:16.289Z,98555.72
2018-06-30T02:12:43.542Z,98556.19
2018-06-30T02:15:10.852Z,98553.76
2018-06-30T02:17:38.227Z,98550.68
2018-06-30T02:20:05.570Z,98556.91
2018-06-30T02:22:32.819Z,98555.73
2018-06-30T02:25:00.069Z,98557.06
2018-06-30T02:27:27.327Z,98556.59
2018-06-30T02:29:54.555Z,98557.06
2018-06-30T02:32:21.833Z,98559.39
2018-06-30T02:34:49.083Z,98569.00
2018-06-30T02:37:16.398Z,98561.30
2018-06-30T02:39:43.690Z,98560.45
2018-06-30T02:42:11.009Z,98563.56
2018-06-30T02:44:38.277Z,98563.48
2018-06-30T02:47:05.675Z,98565.38
2018-06-30T02:49:33.083Z,98570.34
2018-06-30T02:52:00.428Z,98567.66
2018-06-30T02:54:27.891Z,98572.10
2018-06-30T02:56:55.182Z,98572.27
2018-06-30T02:59:22.526Z,98575.44
2018-06-30T03:01:49.988Z,98573.95
2018-06-30T03:04:17.621Z,98572.63
2018-06-30T03:06:44.984Z,98567.77
2018-06-30T03:09:12.365Z,98564.33
2018-06-30T03:11:40.099Z,98567.83
2018-06-30T03:14:07.502Z,98572.31
2018-06-30T03:16:35.445Z,98571.09
2018-06-30T03:19:04.416Z,98567.22
2018-06-30T03:21:33.920Z,98577.23
2018-06-30T03:24:03.141Z,98578.83
2018-06-30T03:26:30.499Z,98581.48
2018-06-30T03:28:57.884Z,98584.13
2018-06-30T03:31:25.244Z,98584.41
2018-06-30T03:33:52.603Z,98582.87
2018-06-30T03:36:19.968Z,98584.75
2018-06-30T03:38:48.071Z,98589.31
2018-06-30T03:41:15.424Z,98586.20
2018-06-30T03:43:42.850Z,98592.88
2018-06-30T03:46:10.247Z,98592.23
2018-06-30T03:48:37.733Z,98593.25
2018-06-30T03:51:05.510Z,98594.56
2018-06-30T03:53:32.912Z,98595.15
2018-06-30T03:56:00.272Z,98593.37
2018-06-30T03:58:27.651Z,98600.44
2018-06-30T04:00:55.033Z,98599.93
2018-06-30T04:03:22.418Z,98602.77
2018-06-30T04:05:49.782Z,98605.81
2018-06-30T04:08:17.228Z,98609.91
2018-06-30T04:10:45.893Z,98607.45
2018-06-30T04:13:13.180Z,98609.41
2018-06-30T04:15:40.672Z,98606.37
2018-06-30T04:18:08.077Z,98610.73
2018-06-30T04:20:35.527Z,98619.98
2018-06-30T04:23:02.963Z,98619.50
2018-06-30T04:25:30.653Z,98613.91
2018-06-30T04:27:58.412Z,98623.62
2018-06-30T04:30:25.772Z,98622.17
2018-06-30T04:32:53.101Z,98626.78
2018-06-30T04:35:20.504Z,98622.72
2018-06-30T04:37:49.349Z,98623.89
2018-06-30T04:40:16.826Z,98627.42
2018-06-30T04:42:44.222Z,98623.36
2018-06-30T04:45:11.606Z,98628.26
2018-06-30T04:47:39.922Z,98628.03
2018-06-30T04:50:08.300Z,98627.84
2018-06-30T04:52:35.639Z,98625.98
2018-06-30T04:55:03.069Z,98629.23
2018-06-30T04:57:30.422Z,98630.78
2018-06-30T04:59:59.019Z,98627.37
2018-06-30T05:02:26.446Z,98627.44
2018-06-30T05:04:53.877Z,98630.95
2018-06-30T05:07:21.461Z,98638.33
2018-06-30T05:09:49.468Z,98638.98
2018-06-30T05:12:16.980Z,98637.90
2018-06-30T05:14:44.341Z,98636.71
2018-06-30T05:17:11.702Z,98636.42
2018-06-30T05:19:39.661Z,98639.97
2018-06-30T05:22:07.055Z,98640.95
2018-06-30T05:24:35.139Z,98642.59
2018-06-30T05:27:02.514Z,98635.58
2018-06-30T05:29:30.583Z,98645.22
2018-06-30T05:31:57.980Z,98647.85
2018-06-30T05:34:25.494Z,98642.78
2018-06-30T05:36:53.005Z,98656.48
2018-06-30T05:39:20.385Z,98660.51
2018-06-30T05:41:47.791Z,98658.95
2018-06-30T05:44:15.295Z,98659.33
2018-06-30T05:46:42.705Z,98656.02
2018-06-30T05:49:10.063Z,98656.66
2018-06-30T05:51:37.434Z,98659.11
2018-06-30T05:54:04.867Z,98659.17
2018-06-30T05:56:32.259Z,98659.37
2018-06-30T05:58:59.684Z,98656.02
2018-06-30T06:01:27.102Z,98659.08
2018-06-30T06:03:54.452Z,98666.45
2018-06-30T06:06:22.584Z,98665.36
2018-06-30T06:08:49.977Z,98665.98
2018-06-30T06:11:17.466Z,98666.84
2018-06-30T06:13:45.016Z,98662.55
2018-06-30T06:16:12.467Z,98675.63
2018-06-30T06:18:39.891Z,98674.53
2018-06-30T06:21:07.267Z,98674.34
2018-06-30T06:23:35.336Z,98665.94
2018-06-30T06:26:02.792Z,98673.19
2018-06-30T06:28:30.269Z,98664.40
2018-06-30T06:30:57.635Z,98664.66
2018-06-30T06:33:25.089Z,98665.91
2018-06-30T06:35:52.447Z,98666.58
2018-06-30T06:38:19.824Z,98669.14
2018-06-30T06:40:47.227Z,98668.56
2018-06-30T06:43:14.570Z,98668.29
2018-06-30T06:45:42.732Z,98665.91
2018-06-30T06:48:10.081Z,98662.58
2018-06-30T06:50:37.943Z,98664.77
2018-06-30T06:53:06.124Z,98665.60
2018-06-30T06:55:33.436Z,98667.48
2018-06-30T06:58:00.793Z,98664.67
2018-06-30T07:00:28.129Z,98672.56
2018-06-30T07:02:55.460Z,98656.03
2018-06-30T07:05:22.846Z,98657.81
2018-06-30T07:07:50.203Z,98657.05
2018-06-30T07:10:18.051Z,98670.73
2018-06-30T07:12:46.046Z,98665.70
2018-06-30T07:15:13.610Z,98665.62
2018-06-30T07:17:41.038Z,98673.86
2018-06-30T07:20:08.463Z,98668.93
2018-06-30T07:22:35.871Z,98667.17
2018-06-30T07:25:03.369Z,98672.20
2018-06-30T07:27:30.716Z,98671.20
2018-06-30T07:29:58.156Z,98668.84
2018-06-30T07:32:25.494Z,98669.42
2018-06-30T07:34:52.862Z,98655.55
2018-06-30T07:37:20.233Z,98660.83
2018-06-30T07:39:47.621Z,98661.31
2018-06-30T07:42:15.037Z,98655.55
2018-06-30T07:44:42.712Z,98655.92
2018-06-30T07:47:10.425Z,98653.91
2018-06-30T07:49:37.768Z,98652.72
2018-06-30T07:52:06.505Z,98648.02
2018-06-30T07:54:33.862Z,98648.75
2018-06-30T07:57:02.179Z,98655.38
2018-06-30T07:59:29.611Z,98647.98
2018-06-30T08:01:57.034Z,98649.38
2018-06-30T08:04:24.518Z,98650.34
2018-06-30T08:06:57.964Z,98649.58
2018-06-30T08:09:25.646Z,98653.17
2018-06-30T08:11:52.926Z,98656.07
2018-06-30T08:14:20.307Z,98667.43
2018-06-30T08:16:47.656Z,98667.44
2018-06-30T08:19:15.034Z,98675.27
2018-06-30T08:21:42.468Z,98668.00
2018-06-30T08:24:09.988Z,98683.22
2018-06-30T08:26:37.395Z,98660.73
2018-06-30T08:29:04.879Z,98675.20
2018-06-30T08:31:32.244Z,98665.41
2018-06-30T08:34:00.109Z,98671.14
2018-06-30T08:36:27.524Z,98674.68
2018-06-30T08:38:54.855Z,98675.95
2018-06-30T08:41:22.284Z,98674.88
2018-06-30T08:43:49.653Z,98668.60
2018-06-30T08:46:17.046Z,98679.20
2018-06-30T08:48:45.329Z,98673.77
2018-06-30T08:51:12.848Z,98679.61
2018-06-30T08:53:40.585Z,98668.20
2018-06-30T08:56:08.015Z,98670.06
2018-06-30T08:58:35.549Z,98670.84
2018-06-30T09:01:03.062Z,98676.41
2018-06-30T09:03:30.443Z,98679.70
2018-06-30T09:05:58.579Z,98683.47
2018-06-30T09:08:26.008Z,98677.61
2018-06-30T09:16:43.012Z,98680.11
2018-06-30T09:19:10.675Z,98675.55
2018-06-30T09:21:38.137Z,98673.95
2018-06-30T09:24:06.205Z,98682.03
2018-06-30T09:26:34.603Z,98670.16
2018-06-30T09:29:02.052Z,98671.06
2018-06-30T09:31:31.838Z,98681.22
2018-06-30T09:33:59.617Z,98668.45
2018-06-30T09:36:30.461Z,98680.38
2018-06-30T09:38:58.271Z,98678.89
2018-06-30T09:41:25.726Z,98677.41
2018-06-30T09:43:53.162Z,98676.92
2018-06-30T09:46:20.817Z,98681.91
2018-06-30T09:48:48.557Z,98681.97
2018-06-30T09:51:19.589Z,98687.46
2018-06-30T09:53:54.649Z,98692.78
2018-06-30T09:56:25.548Z,98686.57
2018-06-30T09:59:01.685Z,98684.61
2018-06-30T10:01:33.212Z,98690.58
2018-06-30T10:04:01.955Z,98683.30
2018-06-30T10:06:29.354Z,98685.94
2018-06-30T10:08:56.889Z,98679.20
2018-06-30T10:11:24.301Z,98673.16
2018-06-30T10:13:52.616Z,98684.77
2018-06-30T10:16:20.007Z,98683.32
2018-06-30T10:18:49.061Z,98678.05
2018-06-30T10:21:16.495Z,98676.00
2018-06-30T10:23:45.635Z,98670.04
2018-06-30T10:26:13.079Z,98672.79
2018-06-30T10:28:40.537Z,98670.89
2018-06-30T10:31:07.998Z,98672.03
2018-06-30T10:33:35.379Z,98674.14
2018-06-30T10:36:02.808Z,98672.49
2018-06-30T10:38:30.516Z,98665.59
2018-06-30T10:40:58.149Z,98665.88
2018-06-30T10:43:25.810Z,98666.69
2018-06-30T10:45:53.221Z,98663.08
2018-06-30T10:48:20.878Z,98658.48
2018-06-30T10:50:50.633Z,98645.40
2018-06-30T10:53:18.135Z,98650.84
2018-06-30T10:55:45.629Z,98647.51
2018-06-30T10:58:13.715Z,98649.09
2018-06-30T11:00:41.303Z,98641.81
2018-06-30T11:03:08.826Z,98631.20
2018-06-30T11:05:48.825Z,98637.59
2018-06-30T11:08:16.794Z,98639.19
2018-06-30T11:10:44.247Z,98629.52
2018-06-30T11:13:11.613Z,98637.48
2018-06-30T11:15:39.028Z,98633.34
2018-06-30T11:18:07.034Z,98635.41
2018-06-30T11:20:35.136Z,98630.78
2018-06-30T11:23:02.679Z,98628.77
2018-06-30T11:25:31.342Z,98625.47
2018-06-30T11:27:58.748Z,98614.00
2018-06-30T11:30:26.114Z,98618.50
2018-06-30T11:32:55.050Z,98624.53
2018-06-30T11:35:23.182Z,98633.50
2018-06-30T11:37:50.578Z,98620.28
2018-06-30T11:40:18.853Z,98621.64
2018-06-30T11:42:46.312Z,98624.69
2018-06-30T11:45:15.697Z,98616.17
2018-06-30T11:47:43.094Z,98622.09
2018-06-30T11:50:11.216Z,98618.53
2018-06-30T11:52:39.432Z,98627.73
2018-06-30T11:55:06.856Z,98612.47
2018-06-30T11:57:35.290Z,98618.69
2018-06-30T12:00:05.021Z,98619.58
2018-06-30T12:02:32.448Z,98617.80
2018-06-30T12:04:59.812Z,98615.81
2018-06-30T12:07:27.690Z,98621.69
2018-06-30T12:09:55.296Z,98620.26
2018-06-30T12:12:25.196Z,98614.81
2018-06-30T12:14:54.845Z,98613.30
2018-06-30T12:17:25.751Z,98607.59
2018-06-30T12:19:55.782Z,98615.06
2018-06-30T12:22:25.016Z,98624.83
2018-06-30T12:24:52.448Z,98612.42
2018-06-30T12:27:20.742Z,98606.89
2018-06-30T12:29:48.221Z,98601.59
2018-06-30T12:32:15.747Z,98610.27
2018-06-30T12:34:43.178Z,98614.30
2018-06-30T12:37:10.567Z,98602.86
2018-06-30T12:39:37.920Z,98608.02
2018-06-30T12:42:05.420Z,98607.03
2018-06-30T12:44:33.522Z,98605.05
2018-06-30T12:47:01.592Z,98602.65
2018-06-30T12:49:29.092Z,98610.74
2018-06-30T12:51:57.707Z,98608.59
2018-06-30T12:54:25.219Z,98607.94
2018-06-30T12:56:52.951Z,98609.59
2018-06-30T12:59:20.808Z,98598.70
2018-06-30T13:01:48.237Z,98609.12
2018-06-30T13:04:15.646Z,98601.72
2018-06-30T13:06:43.066Z,98608.49
2018-06-30T13:09:12.019Z,98609.73
2018-06-30T13:11:39.611Z,98598.32
2018-06-30T13:14:07.636Z,98602.46
2018-06-30T13:16:36.120Z,98611.24
2018-06-30T13:19:03.705Z,98608.38
2018-06-30T13:21:31.245Z,98600.38
2018-06-30T13:23:58.713Z,98600.40
2018-06-30T13:26:26.074Z,98603.47
2018-06-30T13:28:54.057Z,98604.92
2018-06-30T13:31:21.612Z,98612.01
2018-06-30T13:33:49.013Z,98619.27
2018-06-30T13:36:16.416Z,98610.52
2018-06-30T13:38:44.926Z,98608.02
2018-06-30T13:41:12.440Z,98615.38
2018-06-30T13:43:39.871Z,98604.88
2018-06-30T13:46:07.408Z,98596.09
2018-06-30T13:48:34.908Z,98602.46
2018-06-30T13:51:02.799Z,98605.31
2018-06-30T13:53:30.390Z,98595.06
2018-06-30T13:55:57.897Z,98595.28
2018-06-30T13:58:25.380Z,98598.13
2018-06-30T14:00:53.418Z,98604.97
2018-06-30T14:03:20.907Z,98591.64
2018-06-30T14:05:48.307Z,98600.69
2018-06-30T14:08:15.678Z,98590.78
2018-06-30T14:10:43.011Z,98591.52
2018-06-30T14:13:10.458Z,98586.27
2018-06-30T14:15:37.868Z,98602.22
2018-06-30T14:18:05.302Z,98592.88
2018-06-30T14:20:32.690Z,98599.84
2018-06-30T14:23:00.142Z,98589.55
2018-06-30T14:25:28.328Z,98594.20
2018-06-30T14:27:55.729Z,98593.61
2018-06-30T14:30:23.190Z,98588.96
2018-06-30T14:32:51.200Z,98585.38
2018-06-30T14:35:18.573Z,98579.54
2018-06-30T14:37:45.981Z,98589.61
2018-06-30T14:40:13.457Z,98590.69
2018-06-30T14:42:40.969Z,98579.97
2018-06-30T14:45:08.425Z,98577.66
2018-06-30T14:47:35.760Z,98571.86
2018-06-30T14:50:03.256Z,98583.97
2018-06-30T14:52:31.191Z,98572.72
2018-06-30T14:54:58.571Z,98578.53
2018-06-30T14:57:26.034Z,98577.19
2018-06-30T14:59:53.414Z,98575.88
2018-06-30T15:02:23.247Z,98578.78
2018-06-30T15:04:52.288Z,98586.91
2018-06-30T15:07:19.790Z,98578.14
2018-06-30T15:09:48.009Z,98576.76
2018-06-30T15:12:15.735Z,98583.33
2018-06-30T15:14:43.539Z,98579.27
2018-06-30T15:17:11.547Z,98586.83
2018-06-30T15:19:39.932Z,98581.03
2018-06-30T15:22:07.957Z,98569.28
2018-06-30T15:24:36.073Z,98574.23
2018-06-30T15:27:04.608Z,98581.83
2018-06-30T15:29:32.407Z,98579.88
2018-06-30T15:32:00.025Z,98578.70
2018-06-30T15:34:27.924Z,98569.03
2018-06-30T15:36:55.937Z,98576.92
2018-06-30T15:39:24.090Z,98579.92
2018-06-30T15:41:52.230Z,98582.30
2018-06-30T15:44:20.413Z,98579.10
2018-06-30T15:46:49.580Z,98575.97
2018-06-30T15:49:17.580Z,98574.21
2018-06-30T15:51:45.422Z,98577.64
2018-06-30T15:54:13.388Z,98577.08
2018-06-30T15:56:41.274Z,98580.30
2018-06-30T15:59:09.556Z,98576.52
2018-06-30T16:01:37.448Z,98578.66
2018-06-30T16:04:05.732Z,98576.52
2018-06-30T16:06:34.268Z,98577.25
2018-06-30T16:09:03.105Z,98577.59
2018-06-30T16:11:31.372Z,98579.91
2018-06-30T16:14:00.392Z,98574.80
2018-06-30T16:16:28.689Z,98571.05
2018-06-30T16:18:57.474Z,98578.10
2018-06-30T16:21:26.281Z,98578.49
2018-06-30T16:23:55.641Z,98580.47
2018-06-30T16:26:24.119Z,98575.27
2018-06-30T16:28:52.070Z,98575.47
2018-06-30T16:31:21.644Z,98574.36
2018-06-30T16:33:50.632Z,98568.56
2018-06-30T16:36:19.324Z,98570.39
2018-06-30T16:38:47.600Z,98568.52
2018-06-30T16:41:16.167Z,98566.20
2018-06-30T16:43:44.988Z,98564.69
2018-06-30T16:46:13.012Z,98563.09
2018-06-30T16:48:41.544Z,98567.09
2018-06-30T16:51:09.638Z,98563.70
2018-06-30T16:53:37.964Z,98559.59
2018-06-30T16:56:06.300Z,98564.12
2018-06-30T16:58:35.273Z,98571.48
2018-06-30T17:01:04.349Z,98574.43
2018-06-30T17:03:33.388Z,98563.67
2018-06-30T17:06:02.128Z,98564.31
2018-06-30T17:08:30.381Z,98564.09
2018-06-30T17:10:59.093Z,98566.38
2018-06-30T17:13:30.534Z,98565.01
2018-06-30T17:15:58.446Z,98568.11
2018-06-30T17:18:27.342Z,98564.05
2018-06-30T17:20:56.612Z,98558.72
2018-06-30T17:23:25.964Z,98568.08
2018-06-30T17:25:54.702Z,98571.09
2018-06-30T17:28:23.724Z,98564.83
2018-06-30T17:30:51.340Z,98574.00
2018-06-30T17:33:21.616Z,98568.75
2018-06-30T17:35:51.333Z,98578.27
2018-06-30T17:38:21.255Z,98574.61
2018-06-30T17:40:50.813Z,98580.47
2018-06-30T17:43:19.252Z,98567.09
2018-06-30T17:45:47.048Z,98568.86
2018-06-30T17:48:14.958Z,98567.16
2018-06-30T17:50:43.350Z,98569.75
2018-06-30T17:53:12.198Z,98571.86
2018-06-30T17:55:41.533Z,98570.15
2018-06-30T17:58:09.067Z,98577.27
2018-06-30T18:00:38.200Z,98569.64
2018-06-30T18:03:09.914Z,98582.47
2018-06-30T18:05:37.442Z,98581.31
2018-06-30T18:08:05.776Z,98585.70
2018-06-30T18:10:35.468Z,98579.44
2018-06-30T18:13:04.105Z,98588.37
2018-06-30T18:15:33.234Z,98582.00
2018-06-30T18:18:09.027Z,98589.64
2018-06-30T18:20:36.551Z,98583.07
2018-06-30T18:23:05.240Z,98584.98
2018-06-30T18:25:34.102Z,98588.03
2018-06-30T18:28:08.094Z,98592.59
2018-06-30T18:30:36.143Z,98590.87
2018-06-30T18:33:04.750Z,98592.95
2018-06-30T18:35:32.452Z,98588.16
2018-06-30T18:38:00.006Z,98594.85
2018-06-30T18:40:28.294Z,98585.70
2018-06-30T18:42:55.904Z,98597.39
2018-06-30T18:45:23.718Z,98590.42
2018-06-30T18:47:54.262Z,98593.08
2018-06-30T18:50:21.682Z,98593.08
2018-06-30T18:52:49.178Z,98594.39
2018-06-30T18:55:18.235Z,98590.75
2018-06-30T18:57:46.679Z,98590.88
2018-06-30T19:00:15.848Z,98593.36
2018-06-30T19:02:45.450Z,98605.90
2018-06-30T19:05:14.451Z,98597.07
2018-06-30T19:07:44.632Z,98603.56
2018-06-30T19:10:14.691Z,98605.52
2018-06-30T19:12:42.506Z,98607.75
2018-06-30T19:15:11.434Z,98611.98
2018-06-30T19:17:39.505Z,98612.73
2018-06-30T19:20:11.316Z,98618.20
2018-06-30T19:22:40.189Z,98620.99
2018-06-30T19:25:11.276Z,98617.65
2018-06-30T19:27:41.251Z,98628.76
2018-06-30T19:30:10.547Z,98638.48
2018-06-30T19:32:41.192Z,98638.92
2018-06-30T19:35:09.183Z,98636.87
2018-06-30T19:37:37.832Z,98642.67
2018-06-30T19:40:06.314Z,98639.38
2018-06-30T19:42:36.138Z,98642.05
2018-06-30T19:45:04.370Z,98656.16
2018-06-30T19:47:37.067Z,98653.88
2018-06-30T19:50:09.265Z,98661.61
2018-06-30T19:52:37.489Z,98660.37
2018-06-30T19:55:08.012Z,98661.06
2018-06-30T19:57:36.825Z,98657.92
2018-06-30T20:02:32.931Z,98653.63
2018-06-30T20:05:01.506Z,98662.11
2018-06-30T20:07:34.339Z,98660.83
2018-06-30T20:10:04.545Z,98665.14
2018-06-30T20:12:33.284Z,98664.75
2018-06-30T20:15:02.524Z,98662.39
2018-06-30T20:17:32.645Z,98664.27
2018-06-30T20:20:07.584Z,98668.88
2018-06-30T20:22:37.014Z,98672.73
2018-06-30T20:25:10.921Z,98673.59
2018-06-30T20:27:40.729Z,98681.78
2018-06-30T20:30:14.826Z,98685.99
2018-06-30T20:32:43.123Z,98685.80
2018-06-30T20:35:10.764Z,98684.88
2018-06-30T20:37:38.379Z,98690.20
2018-06-30T20:40:06.309Z,98693.72
2018-06-30T20:42:39.662Z,98702.48
2018-06-30T20:45:09.532Z,98699.84
2018-06-30T20:47:40.108Z,98697.16
2018-06-30T20:50:09.881Z,98700.48
2018-06-30T20:52:42.104Z,98701.59
2018-06-30T20:55:09.693Z,98701.88
2018-06-30T20:57:37.854Z,98711.48
2018-06-30T21:00:06.779Z,98705.34
2018-06-30T21:02:36.112Z,98711.43
2018-06-30T21:05:04.259Z,98717.91
2018-06-30T21:07:32.009Z,98716.56
2018-06-30T21:09:59.573Z,98723.11
2018-06-30T21:12:27.103Z,98722.89
2018-06-30T21:14:54.930Z,98730.02
2018-06-30T21:17:24.110Z,98725.94
2018-06-30T21:19:52.346Z,98728.95
2018-06-30T21:22:19.782Z,98730.11
2018-06-30T21:24:48.116Z,98730.51
2018-06-30T21:27:15.615Z,98726.94
2018-06-30T21:29:43.010Z,98731.00
2018-06-30T21:32:10.351Z,98727.50
2018-06-30T21:34:37.687Z,98734.19
2018-06-30T21:37:05.153Z,98732.09
2018-06-30T21:39:32.540Z,98723.69
2018-06-30T21:41:59.824Z,98725.91
2018-06-30T21:44:27.053Z,98726.94
2018-06-30T21:46:54.321Z,98729.02
2018-06-30T21:49:21.610Z,98733.39
2018-06-30T21:51:48.895Z,98734.81
2018-06-30T21:54:16.221Z,98735.11
2018-06-30T21:56:43.709Z,98730.74
2018-06-30T21:59:11.136Z,98737.96
2018-06-30T22:01:38.595Z,98736.00
2018-06-30T22:04:05.879Z,98730.88
2018-06-30T22:06:33.119Z,98737.89
2018-06-30T22:09:00.410Z,98742.39
2018-06-30T22:11:27.848Z,98736.44
2018-06-30T22:13:55.112Z,98741.17
2018-06-30T22:16:22.412Z,98741.56
2018-06-30T22:18:49.696Z,98743.36
2018-06-30T22:21:16.983Z,98742.73
2018-06-30T22:23:44.248Z,98747.30
2018-06-30T22:26:11.590Z,98736.93
2018-06-30T22:28:38.864Z,98739.70
2018-06-30T22:31:06.164Z,98741.48
2018-06-30T22:33:33.453Z,98746.78
2018-06-30T22:36:00.694Z,98747.80
2018-06-30T22:38:27.962Z,98740.84
2018-06-30T22:40:55.183Z,98741.64
2018-06-30T22:43:22.482Z,98745.27
2018-06-30T22:45:49.739Z,98738.84
2018-06-30T22:48:17.030Z,98742.93
2018-06-30T22:50:44.263Z,98749.25
2018-06-30T22:53:11.539Z,98755.16
2018-06-30T22:55:38.758Z,98748.39
2018-06-30T22:58:06.221Z,98761.47
2018-06-30T23:00:33.584Z,98763.45
2018-06-30T23:03:02.103Z,98760.10
2018-06-30T23:05:29.424Z,98765.87
2018-06-30T23:07:56.721Z,98768.46
2018-06-30T23:10:24.010Z,98765.41
2018-06-30T23:12:51.300Z,98765.78
2018-06-30T23:15:18.597Z,98774.11
2018-06-30T23:17:45.874Z,98774.19
2018-06-30T23:20:13.125Z,98775.03
2018-06-30T23:23:01.784Z,98780.20
2018-06-30T23:25:30.239Z,98777.86
2018-06-30T23:27:58.023Z,98777.39
2018-06-30T23:30:25.697Z,98778.26
2018-06-30T23:32:52.975Z,98780.91
2018-06-30T23:35:21.075Z,98780.09
2018-06-30T23:37:48.319Z,98785.59
2018-06-30T23:40:16.205Z,98778.91
2018-06-30T23:42:43.492Z,98782.14
2018-06-30T23:45:10.945Z,98779.80
2018-06-30T23:47:38.249Z,98782.20
2018-06-30T23:50:05.783Z,98776.05
2018-06-30T23:52:33.282Z,98782.25
2018-06-30T23:55:00.551Z,98780.73
2018-06-30T23:57:27.817Z,98779.95
2018-06-30T23:59:55.104Z,98783.65
